Date,TemperatureHighF,TemperatureAvgF,TemperatureLowF,DewpointHighF,DewpointAvgF,DewpointLowF,HumidityHigh,HumidityAvg,HumidityLow,PressureMaxIn,PressureMinIn,WindSpeedMaxMPH,WindSpeedAvgMPH,GustSpeedMaxMPH,PrecipitationSumIn
2013-1-1,20.0,14.8,8.0,15.0,9.0,4.0,85,77,68,30.30,30.16,8,3,0,0.00
2013-1-2,32.0,18.9,6.0,24.0,12.7,3.0,87,77,59,30.26,30.12,6,2,0,0.00
2013-1-3,29.0,25.0,15.0,26.0,20.6,11.0,90,83,69,30.34,30.14,15,8,0,0.00
2013-1-4,33.0,22.3,11.0,26.0,17.9,8.0,88,83,74,30.34,30.23,14,8,0,0.00
2013-1-5,36.0,29.7,20.0,34.0,26.8,17.0,94,89,78,30.27,29.97,12,4,0,0.00
2013-1-6,35.0,23.1,17.0,33.0,20.0,14.0,92,88,84,30.36,29.97,16,8,0,0.00
2013-1-7,40.0,28.1,15.0,29.0,22.9,13.0,93,81,60,30.36,30.11,8,3,0,0.00
2013-1-8,47.0,35.8,27.0,34.0,29.2,24.0,88,77,59,30.15,30.03,8,2,0,0.00
2013-1-9,46.0,37.4,28.0,36.0,30.9,24.0,88,78,61,30.50,30.04,13,6,0,0.00
2013-1-10,42.0,33.6,26.0,39.0,29.4,23.0,98,86,59,30.50,29.82,8,4,0,0.00
2013-1-11,52.0,47.7,40.0,49.0,46.2,39.0,99,95,86,29.85,29.65,11,4,0,0.00
2013-1-12,53.0,38.1,24.0,48.0,34.1,22.0,92,85,79,30.00,29.69,14,7,0,0.00
2013-1-13,24.0,17.8,12.0,22.0,13.6,8.0,93,84,77,30.31,29.93,12,8,0,0.00
2013-1-14,23.0,14.7,9.0,14.0,9.9,6.0,90,81,65,30.50,30.31,6,2,0,0.00
2013-1-15,30.0,19.1,11.0,19.0,13.8,8.0,91,80,59,30.48,30.16,2,0,0,0.00
2013-1-16,35.0,26.4,14.0,30.0,20.1,11.0,92,77,61,30.17,29.89,13,5,0,0.00
2013-1-17,35.0,28.5,23.0,32.0,22.3,15.0,87,77,63,30.39,30.08,10,6,0,0.00
2013-1-19,43.0,37.4,27.0,35.0,28.8,16.0,75,71,61,30.06,29.84,19,14,0,0.00
2013-1-20,26.0,16.4,12.0,17.0,9.1,5.0,81,72,65,30.35,30.03,17,10,0,0.00
2013-1-21,14.0,8.4,4.0,9.0,0.1,-7.0,83,69,53,30.37,30.23,16,11,0,0.00
2013-1-22,13.0,7.1,0.0,3.0,-1.6,-7.0,79,67,58,30.47,30.36,12,7,0,0.00
2013-1-23,27.0,17.6,12.0,15.0,7.9,3.0,80,65,58,30.42,30.15,14,4,0,0.00
2013-1-24,21.0,14.2,5.0,10.0,3.8,-3.0,73,63,54,30.68,30.35,7,2,0,0.00
2013-1-25,35.0,24.0,18.0,23.0,15.9,8.0,89,71,58,30.36,30.01,16,5,0,0.00
2013-1-26,29.0,20.3,10.0,17.0,11.9,6.0,87,70,52,30.43,30.25,5,1,0,0.00
2013-1-27,40.0,29.6,25.0,38.0,25.3,16.0,98,84,64,30.38,29.88,5,1,0,0.00
2013-1-28,51.0,43.3,39.0,47.0,42.4,38.0,99,98,97,29.95,29.73,8,4,0,0.00
2013-1-29,64.0,55.6,43.0,61.0,54.4,41.0,100,96,89,29.74,29.38,7,4,0,0.00
2013-1-30,42.0,30.8,17.0,41.0,29.3,13.0,98,95,82,29.73,29.24,12,3,0,0.00
2013-1-31,17.0,9.4,3.0,13.0,4.1,-4.0,92,79,75,30.29,29.73,17,14,0,0.00